sensor_id;sensor_type;location;lat;lon;timestamp;pressure;altitude;pressure_sealevel;temperature;humidity
15998;BME280;8103;51.340;12.326;2023-04-16T00:01:20;100068.34;;;12.03;nan
15998;BME280;8103;51.340;12.326;2023-04-16T00:07:53;100077.75;;;12.01;nan
15998;BME280;8103;51.340;12.326;2023-04-16T00:14:29;100088.50;;;12.06;nan
15998;BME280;8103;51.340;12.326;2023-04-16T00:21:02;100086.88;;;12.10;nan
15998;BME280;8103;51.340;12.326;2023-04-16T00:23:30;100086.88;;;12.10;nan
15998;BME280;8103;51.340;12.326;2023-04-16T00:25:59;100084.75;;;12.12;nan
15998;BME280;8103;51.340;12.326;2023-04-16T00:28:26;100083.16;;;12.11;nan
15998;BME280;8103;51.340;12.326;2023-04-16T00:30:54;100080.47;;;12.11;nan
15998;BME280;8103;51.340;12.326;2023-04-16T00:33:22;100082.31;;;12.10;nan
15998;BME280;8103;51.340;12.326;2023-04-16T00:39:49;100095.22;;;12.08;nan
15998;BME280;8103;51.340;12.326;2023-04-16T00:46:24;100100.31;;;12.05;nan
15998;BME280;8103;51.340;12.326;2023-04-16T00:48:53;100096.28;;;12.02;nan
15998;BME280;8103;51.340;12.326;2023-04-16T00:51:21;100099.25;;;12.01;nan
15998;BME280;8103;51.340;12.326;2023-04-16T00:53:49;100097.59;;;12.00;nan
15998;BME280;8103;51.340;12.326;2023-04-16T01:00:16;100102.97;;;12.00;nan
15998;BME280;8103;51.340;12.326;2023-04-16T01:02:43;100098.69;;;11.99;nan
15998;BME280;8103;51.340;12.326;2023-04-16T01:05:10;100094.41;;;12.03;nan
15998;BME280;8103;51.340;12.326;2023-04-16T01:07:37;100094.94;;;12.05;nan
15998;BME280;8103;51.340;12.326;2023-04-16T01:10:04;100103.53;;;12.07;nan
15998;BME280;8103;51.340;12.326;2023-04-16T01:12:32;100099.50;;;12.04;nan
15998;BME280;8103;51.340;12.326;2023-04-16T01:15:02;100098.44;;;12.00;nan
15998;BME280;8103;51.340;12.326;2023-04-16T01:17:29;100099.78;;;12.03;nan
15998;BME280;8103;51.340;12.326;2023-04-16T01:20:00;100100.84;;;12.02;nan
15998;BME280;8103;51.340;12.326;2023-04-16T01:22:27;100106.22;;;12.02;nan
15998;BME280;8103;51.340;12.326;2023-04-16T01:29:08;100116.16;;;12.01;nan
15998;BME280;8103;51.340;12.326;2023-04-16T01:31:38;100115.88;;;11.98;nan
15998;BME280;8103;51.340;12.326;2023-04-16T01:34:08;100110.50;;;11.98;nan
15998;BME280;8103;51.340;12.326;2023-04-16T01:36:35;100113.47;;;11.96;nan
15998;BME280;8103;51.340;12.326;2023-04-16T01:39:05;100113.47;;;11.96;nan
15998;BME280;8103;51.340;12.326;2023-04-16T01:41:33;100115.06;;;11.97;nan
15998;BME280;8103;51.340;12.326;2023-04-16T01:44:00;100113.72;;;12.00;nan
15998;BME280;8103;51.340;12.326;2023-04-16T01:46:30;100114.81;;;11.99;nan
15998;BME280;8103;51.340;12.326;2023-04-16T01:48:58;100125.00;;;11.97;nan
15998;BME280;8103;51.340;12.326;2023-04-16T01:55:24;100124.66;;;11.78;nan
15998;BME280;8103;51.340;12.326;2023-04-16T01:57:52;100121.16;;;11.78;nan
15998;BME280;8103;51.340;12.326;2023-04-16T02:00:19;100120.09;;;11.79;nan
15998;BME280;8103;51.340;12.326;2023-04-16T02:02:46;100128.16;;;11.79;nan
15998;BME280;8103;51.340;12.326;2023-04-16T02:05:15;100119.56;;;11.77;nan
15998;BME280;8103;51.340;12.326;2023-04-16T02:07:41;100117.94;;;11.76;nan
15998;BME280;8103;51.340;12.326;2023-04-16T02:10:09;100130.00;;;11.73;nan
15998;BME280;8103;51.340;12.326;2023-04-16T02:12:35;100125.16;;;11.70;nan
15998;BME280;8103;51.340;12.326;2023-04-16T02:15:03;100125.16;;;11.70;nan
15998;BME280;8103;51.340;12.326;2023-04-16T02:17:30;100125.97;;;11.71;nan
15998;BME280;8103;51.340;12.326;2023-04-16T02:19:56;100125.16;;;11.70;nan
15998;BME280;8103;51.340;12.326;2023-04-16T02:22:23;100128.09;;;11.69;nan
15998;BME280;8103;51.340;12.326;2023-04-16T02:24:50;100124.63;;;11.68;nan
15998;BME280;8103;51.340;12.326;2023-04-16T02:27:17;100133.47;;;11.69;nan
15998;BME280;8103;51.340;12.326;2023-04-16T02:29:44;100135.09;;;11.70;nan
15998;BME280;8103;51.340;12.326;2023-04-16T02:32:11;100129.16;;;11.68;nan
15998;BME280;8103;51.340;12.326;2023-04-16T02:34:38;100131.34;;;11.71;nan
15998;BME280;8103;51.340;12.326;2023-04-16T02:37:05;100137.00;;;11.74;nan
15998;BME280;8103;51.340;12.326;2023-04-16T02:39:32;100136.75;;;11.76;nan
15998;BME280;8103;51.340;12.326;2023-04-16T02:41:59;100138.81;;;11.69;nan
15998;BME280;8103;51.340;12.326;2023-04-16T02:44:28;100143.13;;;11.65;nan
15998;BME280;8103;51.340;12.326;2023-04-16T02:46:55;100139.31;;;11.61;nan
15998;BME280;8103;51.340;12.326;2023-04-16T02:49:22;100141.94;;;11.56;nan
15998;BME280;8103;51.340;12.326;2023-04-16T02:51:49;100143.53;;;11.52;nan
15998;BME280;8103;51.340;12.326;2023-04-16T02:54:16;100145.66;;;11.50;nan
15998;BME280;8103;51.340;12.326;2023-04-16T02:56:43;100147.00;;;11.47;nan
15998;BME280;8103;51.340;12.326;2023-04-16T02:59:09;100142.97;;;11.45;nan
15998;BME280;8103;51.340;12.326;2023-04-16T03:01:36;100143.50;;;11.42;nan
15998;BME280;8103;51.340;12.326;2023-04-16T03:04:03;100145.34;;;11.36;nan
15998;BME280;8103;51.340;12.326;2023-04-16T03:06:30;100145.88;;;11.38;nan
15998;BME280;8103;51.340;12.326;2023-04-16T03:08:57;100152.31;;;11.37;nan
15998;BME280;8103;51.340;12.326;2023-04-16T03:11:24;100155.75;;;11.33;nan
15998;BME280;8103;51.340;12.326;2023-04-16T03:13:51;100147.72;;;11.33;nan
15998;BME280;8103;51.340;12.326;2023-04-16T03:16:18;100155.50;;;11.34;nan
15998;BME280;8103;51.340;12.326;2023-04-16T03:18:45;100161.69;;;11.35;nan
15998;BME280;8103;51.340;12.326;2023-04-16T03:21:11;100157.38;;;11.34;nan
15998;BME280;8103;51.340;12.326;2023-04-16T03:23:40;100162.22;;;11.32;nan
15998;BME280;8103;51.340;12.326;2023-04-16T03:26:07;100158.41;;;11.28;nan
15998;BME280;8103;51.340;12.326;2023-04-16T03:28:34;100162.75;;;11.34;nan
15998;BME280;8103;51.340;12.326;2023-04-16T03:31:00;100170.78;;;11.34;nan
15998;BME280;8103;51.340;12.326;2023-04-16T03:33:27;100171.34;;;11.36;nan
15998;BME280;8103;51.340;12.326;2023-04-16T03:35:57;100168.63;;;11.31;nan
15998;BME280;8103;51.340;12.326;2023-04-16T03:38:25;100166.44;;;11.28;nan
15998;BME280;8103;51.340;12.326;2023-04-16T03:40:52;100169.69;;;11.25;nan
15998;BME280;8103;51.340;12.326;2023-04-16T03:43:19;100173.91;;;11.21;nan
15998;BME280;8103;51.340;12.326;2023-04-16T03:45:46;100178.50;;;11.20;nan
15998;BME280;8103;51.340;12.326;2023-04-16T03:48:13;100173.38;;;11.19;nan
15998;BME280;8103;51.340;12.326;2023-04-16T03:50:44;100178.78;;;11.24;nan
15998;BME280;8103;51.340;12.326;2023-04-16T03:53:12;100179.34;;;11.31;nan
15998;BME280;8103;51.340;12.326;2023-04-16T03:55:41;100183.72;;;11.37;nan
15998;BME280;8103;51.340;12.326;2023-04-16T03:58:08;100186.38;;;11.37;nan
15998;BME280;8103;51.340;12.326;2023-04-16T04:00:36;100185.34;;;11.38;nan
15998;BME280;8103;51.340;12.326;2023-04-16T04:03:02;100187.72;;;11.34;nan
15998;BME280;8103;51.340;12.326;2023-04-16T04:05:29;100192.78;;;11.31;nan
15998;BME280;8103;51.340;12.326;2023-04-16T04:07:56;100194.38;;;11.27;nan
15998;BME280;8103;51.340;12.326;2023-04-16T04:10:23;100204.59;;;11.30;nan
15998;BME280;8103;51.340;12.326;2023-04-16T04:12:50;100205.41;;;11.30;nan
15998;BME280;8103;51.340;12.326;2023-04-16T04:15:16;100204.09;;;11.33;nan
15998;BME280;8103;51.340;12.326;2023-04-16T04:17:43;100209.13;;;11.29;nan
15998;BME280;8103;51.340;12.326;2023-04-16T04:20:11;100206.72;;;11.28;nan
15998;BME280;8103;51.340;12.326;2023-04-16T04:22:37;100208.88;;;11.26;nan
15998;BME280;8103;51.340;12.326;2023-04-16T04:25:05;100215.00;;;11.21;nan
15998;BME280;8103;51.340;12.326;2023-04-16T04:27:31;100211.50;;;11.21;nan
15998;BME280;8103;51.340;12.326;2023-04-16T04:29:59;100212.81;;;11.18;nan
15998;BME280;8103;51.340;12.326;2023-04-16T04:32:26;100211.72;;;11.14;nan
15998;BME280;8103;51.340;12.326;2023-04-16T04:34:53;100211.41;;;11.11;nan
15998;BME280;8103;51.340;12.326;2023-04-16T04:37:20;100217.78;;;11.05;nan
15998;BME280;8103;51.340;12.326;2023-04-16T04:39:47;100224.22;;;11.04;nan
15998;BME280;8103;51.340;12.326;2023-04-16T04:42:16;100218.88;;;11.09;nan
15998;BME280;8103;51.340;12.326;2023-04-16T04:44:44;100222.44;;;11.14;nan
15998;BME280;8103;51.340;12.326;2023-04-16T04:47:12;100226.50;;;11.17;nan
15998;BME280;8103;51.340;12.326;2023-04-16T04:49:39;100231.84;;;11.17;nan
15998;BME280;8103;51.340;12.326;2023-04-16T04:52:07;100228.09;;;11.18;nan
15998;BME280;8103;51.340;12.326;2023-04-16T04:54:34;100224.06;;;11.15;nan
15998;BME280;8103;51.340;12.326;2023-04-16T04:57:01;100233.97;;;11.15;nan
15998;BME280;8103;51.340;12.326;2023-04-16T04:59:28;100234.78;;;11.15;nan
15998;BME280;8103;51.340;12.326;2023-04-16T05:01:55;100239.91;;;11.17;nan
15998;BME280;8103;51.340;12.326;2023-04-16T05:04:22;100240.47;;;11.19;nan
15998;BME280;8103;51.340;12.326;2023-04-16T05:06:48;100238.28;;;11.16;nan
15998;BME280;8103;51.340;12.326;2023-04-16T05:09:15;100246.84;;;11.13;nan
15998;BME280;8103;51.340;12.326;2023-04-16T05:11:42;100244.16;;;11.13;nan
15998;BME280;8103;51.340;12.326;2023-04-16T05:14:09;100240.34;;;11.09;nan
15998;BME280;8103;51.340;12.326;2023-04-16T05:16:36;100249.19;;;11.04;nan
15998;BME280;8103;51.340;12.326;2023-04-16T05:19:03;100248.63;;;11.02;nan
15998;BME280;8103;51.340;12.326;2023-04-16T05:21:30;100256.34;;;10.99;nan
15998;BME280;8103;51.340;12.326;2023-04-16T05:23:57;100263.72;;;10.87;nan
15998;BME280;8103;51.340;12.326;2023-04-16T05:26:24;100258.59;;;10.80;nan
15998;BME280;8103;51.340;12.326;2023-04-16T05:28:51;100264.13;;;10.73;nan
15998;BME280;8103;51.340;12.326;2023-04-16T05:31:18;100272.13;;;10.68;nan
15998;BME280;8103;51.340;12.326;2023-04-16T05:33:45;100281.78;;;10.69;nan
15998;BME280;8103;51.340;12.326;2023-04-16T05:36:12;100276.69;;;10.68;nan
15998;BME280;8103;51.340;12.326;2023-04-16T05:38:38;100282.84;;;10.68;nan
15998;BME280;8103;51.340;12.326;2023-04-16T05:41:05;100285.59;;;10.73;nan
15998;BME280;8103;51.340;12.326;2023-04-16T05:43:32;100286.22;;;10.81;nan
15998;BME280;8103;51.340;12.326;2023-04-16T05:45:59;100279.31;;;10.90;nan
15998;BME280;8103;51.340;12.326;2023-04-16T05:48:26;100278.31;;;10.96;nan
15998;BME280;8103;51.340;12.326;2023-04-16T05:50:53;100284.34;;;11.08;nan
15998;BME280;8103;51.340;12.326;2023-04-16T05:53:20;100280.59;;;11.09;nan
15998;BME280;8103;51.340;12.326;2023-04-16T05:59:53;100293.63;;;11.22;nan
15998;BME280;8103;51.340;12.326;2023-04-16T06:02:20;100297.97;;;11.28;nan
15998;BME280;8103;51.340;12.326;2023-04-16T06:04:50;100300.97;;;11.31;nan
15998;BME280;8103;51.340;12.326;2023-04-16T06:07:17;100303.41;;;11.33;nan
15998;BME280;8103;51.340;12.326;2023-04-16T06:09:44;100298.63;;;11.40;nan
15998;BME280;8103;51.340;12.326;2023-04-16T06:12:11;100302.22;;;11.50;nan
15998;BME280;8103;51.340;12.326;2023-04-16T06:14:38;100310.13;;;11.62;nan
15998;BME280;8103;51.340;12.326;2023-04-16T06:21:04;100311.84;;;11.73;nan
15998;BME280;8103;51.340;12.326;2023-04-16T06:23:31;100309.41;;;11.71;nan
15998;BME280;8103;51.340;12.326;2023-04-16T06:25:58;100314.47;;;11.68;nan
15998;BME280;8103;51.340;12.326;2023-04-16T06:28:25;100317.16;;;11.68;nan
15998;BME280;8103;51.340;12.326;2023-04-16T06:30:51;100316.91;;;11.69;nan
15998;BME280;8103;51.340;12.326;2023-04-16T06:33:18;100325.53;;;11.71;nan
15998;BME280;8103;51.340;12.326;2023-04-16T06:35:45;100328.75;;;11.73;nan
15998;BME280;8103;51.340;12.326;2023-04-16T06:38:12;100328.47;;;11.70;nan
15998;BME280;8103;51.340;12.326;2023-04-16T06:40:39;100337.56;;;11.69;nan
15998;BME280;8103;51.340;12.326;2023-04-16T06:43:06;100333.84;;;11.70;nan
15998;BME280;8103;51.340;12.326;2023-04-16T06:45:33;100333.84;;;11.70;nan
15998;BME280;8103;51.340;12.326;2023-04-16T06:48:00;100338.19;;;11.76;nan
15998;BME280;8103;51.340;12.326;2023-04-16T06:50:28;100333.94;;;11.80;nan
15998;BME280;8103;51.340;12.326;2023-04-16T06:52:55;100340.91;;;11.81;nan
15998;BME280;8103;51.340;12.326;2023-04-16T06:55:22;100343.56;;;11.76;nan
15998;BME280;8103;51.340;12.326;2023-04-16T07:01:55;100345.75;;;11.79;nan
15998;BME280;8103;51.340;12.326;2023-04-16T07:04:22;100349.53;;;11.83;nan
15998;BME280;8103;51.340;12.326;2023-04-16T07:06:49;100346.88;;;11.88;nan
15998;BME280;8103;51.340;12.326;2023-04-16T07:09:16;100342.63;;;11.92;nan
15998;BME280;8103;51.340;12.326;2023-04-16T07:11:43;100351.28;;;11.99;nan
15998;BME280;8103;51.340;12.326;2023-04-16T07:14:10;100351.53;;;11.97;nan
15998;BME280;8103;51.340;12.326;2023-04-16T07:16:37;100359.28;;;11.94;nan
15998;BME280;8103;51.340;12.326;2023-04-16T07:19:04;100356.81;;;11.87;nan
15998;BME280;8103;51.340;12.326;2023-04-16T07:21:31;100361.69;;;11.90;nan
15998;BME280;8103;51.340;12.326;2023-04-16T07:23:58;100353.97;;;11.99;nan
15998;BME280;8103;51.340;12.326;2023-04-16T07:26:25;100364.72;;;11.99;nan
15998;BME280;8103;51.340;12.326;2023-04-16T07:28:52;100373.28;;;11.96;nan
15998;BME280;8103;51.340;12.326;2023-04-16T07:31:18;100374.94;;;12.02;nan
15998;BME280;8103;51.340;12.326;2023-04-16T07:33:45;100381.94;;;12.03;nan
15998;BME280;8103;51.340;12.326;2023-04-16T07:36:12;100377.06;;;12.00;nan
15998;BME280;8103;51.340;12.326;2023-04-16T07:42:47;100385.72;;;12.07;nan
15998;BME280;8103;51.340;12.326;2023-04-16T07:45:14;100392.47;;;12.09;nan
15998;BME280;8103;51.340;12.326;2023-04-16T07:47:41;100399.78;;;12.14;nan
15998;BME280;8103;51.340;12.326;2023-04-16T07:50:08;100399.91;;;12.34;nan
15998;BME280;8103;51.340;12.326;2023-04-16T07:52:35;100403.25;;;12.51;nan
15998;BME280;8103;51.340;12.326;2023-04-16T07:55:05;100400.38;;;12.62;nan
15998;BME280;8103;51.340;12.326;2023-04-16T07:57:32;100409.81;;;12.65;nan
15998;BME280;8103;51.340;12.326;2023-04-16T07:59:59;100411.97;;;12.68;nan
15998;BME280;8103;51.340;12.326;2023-04-16T08:02:27;100414.88;;;12.56;nan
15998;BME280;8103;51.340;12.326;2023-04-16T08:04:54;100410.97;;;12.37;nan
15998;BME280;8103;51.340;12.326;2023-04-16T08:07:21;100411.22;;;12.36;nan
15998;BME280;8103;51.340;12.326;2023-04-16T08:09:51;100412.28;;;12.35;nan
15998;BME280;8103;51.340;12.326;2023-04-16T08:12:18;100413.28;;;12.24;nan
15998;BME280;8103;51.340;12.326;2023-04-16T08:14:46;100421.34;;;12.24;nan
15998;BME280;8103;51.340;12.326;2023-04-16T08:17:14;100419.38;;;12.14;nan
15998;BME280;8103;51.340;12.326;2023-04-16T08:19:42;100424.16;;;12.07;nan
15998;BME280;8103;51.340;12.326;2023-04-16T08:22:12;100429.19;;;11.99;nan
15998;BME280;8103;51.340;12.326;2023-04-16T08:24:39;100425.19;;;12.01;nan
15998;BME280;8103;51.340;12.326;2023-04-16T08:27:06;100426.03;;;12.07;nan
15998;BME280;8103;51.340;12.326;2023-04-16T08:29:43;100430.63;;;12.11;nan
15998;BME280;8103;51.340;12.326;2023-04-16T08:32:10;100431.50;;;12.17;nan
15998;BME280;8103;51.340;12.326;2023-04-16T08:34:37;100437.47;;;12.24;nan
15998;BME280;8103;51.340;12.326;2023-04-16T08:37:04;100435.94;;;12.33;nan
15998;BME280;8103;51.340;12.326;2023-04-16T08:39:32;100443.25;;;12.37;nan
15998;BME280;8103;51.340;12.326;2023-04-16T08:42:03;100445.41;;;12.40;nan
15998;BME280;8103;51.340;12.326;2023-04-16T08:44:34;100444.63;;;12.45;nan
15998;BME280;8103;51.340;12.326;2023-04-16T08:47:06;100454.28;;;12.41;nan
15998;BME280;8103;51.340;12.326;2023-04-16T08:49:43;100451.06;;;12.39;nan
15998;BME280;8103;51.340;12.326;2023-04-16T08:52:18;100454.28;;;12.41;nan
15998;BME280;8103;51.340;12.326;2023-04-16T08:55:00;100452.69;;;12.45;nan
15998;BME280;8103;51.340;12.326;2023-04-16T08:57:49;100455.38;;;12.45;nan
15998;BME280;8103;51.340;12.326;2023-04-16T09:00:19;100464.00;;;12.47;nan
15998;BME280;8103;51.340;12.326;2023-04-16T09:02:47;100458.34;;;12.43;nan
15998;BME280;8103;51.340;12.326;2023-04-16T09:05:16;100464.00;;;12.47;nan
15998;BME280;8103;51.340;12.326;2023-04-16T09:07:46;100465.88;;;12.46;nan
15998;BME280;8103;51.340;12.326;2023-04-16T09:10:15;100462.41;;;12.46;nan
15998;BME280;8103;51.340;12.326;2023-04-16T09:12:43;100471.22;;;12.41;nan
15998;BME280;8103;51.340;12.326;2023-04-16T09:15:12;100469.38;;;12.42;nan
15998;BME280;8103;51.340;12.326;2023-04-16T09:17:40;100472.63;;;12.49;nan
15998;BME280;8103;51.340;12.326;2023-04-16T09:20:08;100471.31;;;12.51;nan
15998;BME280;8103;51.340;12.326;2023-04-16T09:26:43;100482.44;;;12.65;nan
15998;BME280;8103;51.340;12.326;2023-04-16T09:29:40;100480.78;;;12.64;nan
15998;BME280;8103;51.340;12.326;2023-04-16T09:32:11;100488.88;;;12.64;nan
15998;BME280;8103;51.340;12.326;2023-04-16T09:34:59;100494.78;;;12.61;nan
15998;BME280;8103;51.340;12.326;2023-04-16T09:37:29;100491.88;;;12.67;nan
15998;BME280;8103;51.340;12.326;2023-04-16T09:40:01;100497.50;;;12.66;nan
15998;BME280;8103;51.340;12.326;2023-04-16T09:42:33;100498.06;;;12.68;nan
15998;BME280;8103;51.340;12.326;2023-04-16T09:45:02;100504.75;;;12.65;nan
15998;BME280;8103;51.340;12.326;2023-04-16T09:47:40;100504.53;;;12.72;nan
15998;BME280;8103;51.340;12.326;2023-04-16T09:50:08;100502.94;;;12.76;nan
15998;BME280;8103;51.340;12.326;2023-04-16T09:52:39;100496.59;;;12.87;nan
15998;BME280;8103;51.340;12.326;2023-04-16T09:55:09;100498.84;;;13.00;nan
15998;BME280;8103;51.340;12.326;2023-04-16T09:57:37;100504.50;;;13.04;nan
15998;BME280;8103;51.340;12.326;2023-04-16T10:00:07;100504.81;;;13.07;nan
15998;BME280;8103;51.340;12.326;2023-04-16T10:02:39;100507.28;;;13.14;nan
15998;BME280;8103;51.340;12.326;2023-04-16T10:05:08;100507.03;;;13.20;nan
15998;BME280;8103;51.340;12.326;2023-04-16T10:07:37;100512.72;;;13.24;nan
15998;BME280;8103;51.340;12.326;2023-04-16T10:10:05;100521.56;;;13.19;nan
15998;BME280;8103;51.340;12.326;2023-04-16T10:16:38;100522.75;;;12.97;nan
15998;BME280;8103;51.340;12.326;2023-04-16T10:19:06;100524.06;;;12.94;nan
15998;BME280;8103;51.340;12.326;2023-04-16T10:21:35;100526.84;;;12.99;nan
15998;BME280;8103;51.340;12.326;2023-04-16T10:24:02;100529.56;;;13.04;nan
15998;BME280;8103;51.340;12.326;2023-04-16T10:26:30;100537.88;;;13.03;nan
15998;BME280;8103;51.340;12.326;2023-04-16T10:28:58;100533.84;;;13.00;nan
15998;BME280;8103;51.340;12.326;2023-04-16T10:31:26;100536.81;;;13.04;nan
15998;BME280;8103;51.340;12.326;2023-04-16T10:33:54;100536.63;;;13.15;nan
15998;BME280;8103;51.340;12.326;2023-04-16T10:36:23;100539.03;;;13.12;nan
15998;BME280;8103;51.340;12.326;2023-04-16T10:38:57;100541.81;;;13.32;nan
15998;BME280;8103;51.340;12.326;2023-04-16T10:45:36;100548.66;;;13.49;nan
15998;BME280;8103;51.340;12.326;2023-04-16T10:48:05;100533.88;;;13.57;nan
15998;BME280;8103;51.340;12.326;2023-04-16T10:50:35;100539.88;;;13.74;nan
15998;BME280;8103;51.340;12.326;2023-04-16T10:53:23;100543.16;;;13.91;nan
15998;BME280;8103;51.340;12.326;2023-04-16T10:56:10;100550.50;;;14.10;nan
15998;BME280;8103;51.340;12.326;2023-04-16T10:58:38;100546.25;;;14.24;nan
15998;BME280;8103;51.340;12.326;2023-04-16T11:01:12;100554.88;;;14.26;nan
15998;BME280;8103;51.340;12.326;2023-04-16T11:03:47;100549.97;;;14.13;nan
15998;BME280;8103;51.340;12.326;2023-04-16T11:06:18;100545.94;;;14.21;nan
15998;BME280;8103;51.340;12.326;2023-04-16T11:08:54;100549.22;;;14.33;nan
15998;BME280;8103;51.340;12.326;2023-04-16T11:11:25;100551.66;;;14.29;nan
15998;BME280;8103;51.340;12.326;2023-04-16T11:13:54;100551.13;;;14.32;nan
15998;BME280;8103;51.340;12.326;2023-04-16T11:16:24;100555.97;;;14.30;nan
15998;BME280;8103;51.340;12.326;2023-04-16T11:18:52;100551.63;;;14.24;nan
15998;BME280;8103;51.340;12.326;2023-04-16T11:21:21;100554.88;;;14.26;nan
15998;BME280;8103;51.340;12.326;2023-04-16T11:23:51;100549.47;;;14.31;nan
15998;BME280;8103;51.340;12.326;2023-04-16T11:26:29;100556.25;;;14.39;nan
15998;BME280;8103;51.340;12.326;2023-04-16T11:28:57;100561.38;;;14.45;nan
15998;BME280;8103;51.340;12.326;2023-04-16T11:31:25;100564.59;;;14.32;nan
15998;BME280;8103;51.340;12.326;2023-04-16T11:33:55;100553.25;;;14.25;nan
15998;BME280;8103;51.340;12.326;2023-04-16T11:36:25;100561.84;;;14.17;nan
15998;BME280;8103;51.340;12.326;2023-04-16T11:39:01;100566.69;;;14.10;nan
15998;BME280;8103;51.340;12.326;2023-04-16T11:41:29;100575.81;;;13.99;nan
15998;BME280;8103;51.340;12.326;2023-04-16T11:43:56;100567.66;;;13.84;nan
15998;BME280;8103;51.340;12.326;2023-04-16T11:46:36;100569.78;;;13.72;nan
15998;BME280;8103;51.340;12.326;2023-04-16T11:53:10;100582.88;;;13.49;nan
15998;BME280;8103;51.340;12.326;2023-04-16T11:55:43;100574.50;;;13.45;nan
15998;BME280;8103;51.340;12.326;2023-04-16T12:02:40;100586.81;;;13.36;nan
15998;BME280;8103;51.340;12.326;2023-04-16T12:05:31;100590.91;;;13.44;nan
15998;BME280;8103;51.340;12.326;2023-04-16T12:08:28;100585.84;;;13.52;nan
15998;BME280;8103;51.340;12.326;2023-04-16T12:11:02;100587.28;;;13.70;nan
15998;BME280;8103;51.340;12.326;2023-04-16T12:13:29;100597.38;;;13.94;nan
15998;BME280;8103;51.340;12.326;2023-04-16T12:15:56;100590.94;;;14.15;nan
15998;BME280;8103;51.340;12.326;2023-04-16T12:18:25;100590.72;;;14.22;nan
15998;BME280;8103;51.340;12.326;2023-04-16T12:20:54;100593.13;;;14.13;nan
15998;BME280;8103;51.340;12.326;2023-04-16T12:27:53;100598.59;;;14.33;nan
15998;BME280;8103;51.340;12.326;2023-04-16T12:30:23;100600.78;;;14.51;nan
15998;BME280;8103;51.340;12.326;2023-04-16T12:37:23;100601.31;;;14.48;nan
15998;BME280;8103;51.340;12.326;2023-04-16T12:39:49;100608.34;;;14.49;nan
15998;BME280;8103;51.340;12.326;2023-04-16T12:42:16;100600.78;;;14.51;nan
15998;BME280;8103;51.340;12.326;2023-04-16T12:44:44;100606.19;;;14.51;nan
15998;BME280;8103;51.340;12.326;2023-04-16T12:47:12;100613.19;;;14.42;nan
15998;BME280;8103;51.340;12.326;2023-04-16T12:49:39;100595.59;;;14.30;nan
15998;BME280;8103;51.340;12.326;2023-04-16T12:52:05;100595.81;;;14.18;nan
15998;BME280;8103;51.340;12.326;2023-04-16T12:54:33;100601.44;;;14.07;nan
15998;BME280;8103;51.340;12.326;2023-04-16T12:57:00;100601.47;;;14.17;nan
15998;BME280;8103;51.340;12.326;2023-04-16T13:03:34;100605.19;;;14.01;nan
15998;BME280;8103;51.340;12.326;2023-04-16T13:06:03;100601.09;;;13.83;nan
15998;BME280;8103;51.340;12.326;2023-04-16T13:08:30;100604.25;;;13.70;nan
15998;BME280;8103;51.340;12.326;2023-04-16T13:10:57;100608.03;;;13.69;nan
15998;BME280;8103;51.340;12.326;2023-04-16T13:13:24;100604.03;;;13.77;nan
15998;BME280;8103;51.340;12.326;2023-04-16T13:15:51;100612.91;;;13.72;nan
15998;BME280;8103;51.340;12.326;2023-04-16T13:18:18;100615.88;;;13.71;nan
15998;BME280;8103;51.340;12.326;2023-04-16T13:20:45;100611.25;;;13.71;nan
15998;BME280;8103;51.340;12.326;2023-04-16T13:23:12;100611.53;;;13.70;nan
15998;BME280;8103;51.340;12.326;2023-04-16T13:25:39;100616.66;;;13.71;nan
15998;BME280;8103;51.340;12.326;2023-04-16T13:32:12;100624.22;;;13.69;nan
15998;BME280;8103;51.340;12.326;2023-04-16T13:34:42;100619.63;;;13.70;nan
15998;BME280;8103;51.340;12.326;2023-04-16T13:37:09;100614.53;;;13.73;nan
15998;BME280;8103;51.340;12.326;2023-04-16T13:39:36;100618.34;;;13.82;nan
15998;BME280;8103;51.340;12.326;2023-04-16T13:42:03;100625.16;;;14.00;nan
15998;BME280;8103;51.340;12.326;2023-04-16T13:44:30;100614.50;;;14.25;nan
15998;BME280;8103;51.340;12.326;2023-04-16T13:47:00;100627.75;;;14.46;nan
15998;BME280;8103;51.340;12.326;2023-04-16T13:49:27;100624.22;;;14.46;nan
15998;BME280;8103;51.340;12.326;2023-04-16T13:55:56;100625.63;;;14.63;nan
15998;BME280;8103;51.340;12.326;2023-04-16T13:58:24;100623.72;;;14.54;nan
15998;BME280;8103;51.340;12.326;2023-04-16T14:00:51;100630.22;;;14.53;nan
15998;BME280;8103;51.340;12.326;2023-04-16T14:03:18;100629.94;;;14.59;nan
15998;BME280;8103;51.340;12.326;2023-04-16T14:05:46;100633.69;;;14.53;nan
15998;BME280;8103;51.340;12.326;2023-04-16T14:08:14;100634.78;;;14.42;nan
15998;BME280;8103;51.340;12.326;2023-04-16T14:10:42;100634.78;;;14.42;nan
15998;BME280;8103;51.340;12.326;2023-04-16T14:17:16;100634.81;;;14.62;nan
15998;BME280;8103;51.340;12.326;2023-04-16T14:19:42;100635.84;;;14.46;nan
15998;BME280;8103;51.340;12.326;2023-04-16T14:22:09;100639.63;;;14.35;nan
15998;BME280;8103;51.340;12.326;2023-04-16T14:28:43;100652.06;;;14.51;nan
15998;BME280;8103;51.340;12.326;2023-04-16T14:31:10;100636.41;;;14.48;nan
15998;BME280;8103;51.340;12.326;2023-04-16T14:33:37;100646.13;;;14.54;nan
15998;BME280;8103;51.340;12.326;2023-04-16T14:36:05;100643.72;;;14.63;nan
15998;BME280;8103;51.340;12.326;2023-04-16T14:38:34;100642.91;;;14.62;nan
15998;BME280;8103;51.340;12.326;2023-04-16T14:41:01;100645.09;;;14.70;nan
15998;BME280;8103;51.340;12.326;2023-04-16T14:43:28;100641.56;;;14.80;nan
15998;BME280;8103;51.340;12.326;2023-04-16T14:45:56;100648.84;;;14.69;nan
15998;BME280;8103;51.340;12.326;2023-04-16T14:48:24;100642.38;;;14.60;nan
15998;BME280;8103;51.340;12.326;2023-04-16T14:50:52;100645.34;;;14.59;nan
15998;BME280;8103;51.340;12.326;2023-04-16T14:53:19;100646.13;;;14.54;nan
15998;BME280;8103;51.340;12.326;2023-04-16T14:55:46;100653.13;;;14.50;nan